Time;durP1;ratioP1;P1;durP2;ratioP2;P2;SDS_P1;SDS_P2;PMS_P1;PMS_P2;Temp;Humidity;BMP_temperature;BMP_pressure;BME280_temperature;BME280_humidity;BME280_pressure;Samples;Min_cycle;Max_cycle;Signal;HPM_P1;HPM_P2
2021/05/23 16:37:41;;;;;;;2.52;1.22;;;;;;;19.51;36.51;99035.54;1834790;77;22201;-67
2021/05/23 16:40:16;;;;;;;3.10;1.35;;;;;;;19.47;36.11;99043.49;1889870;76;22151;-66
2021/05/23 16:42:50;;;;;;;4.83;1.60;;;;;;;19.40;36.61;99037.98;1870678;76;22104;-66
2021/05/23 16:45:27;;;;;;;4.22;1.50;;;;;;;19.30;36.56;99038.65;1870613;76;22562;-66
2021/05/23 16:48:02;;;;;;;3.33;1.55;;;;;;;19.24;36.95;99036.19;1889878;76;22558;-67
2021/05/23 16:50:38;;;;;;;5.05;1.50;;;;;;;19.19;36.91;99045.44;1854583;76;27874;-65
2021/05/23 16:53:15;;;;;;;5.70;1.65;;;;;;;19.21;37.03;99043.66;1854621;76;38633;-67
2021/05/23 16:55:50;;;;;;;4.20;1.57;;;;;;;19.25;37.19;99046.59;1870607;76;22117;-66
2021/05/23 16:58:27;;;;;;;5.80;1.75;;;;;;;19.23;37.05;99044.91;1870635;76;22612;-65
2021/05/23 17:01:03;;;;;;;6.28;1.40;;;;;;;19.19;36.88;99048.52;1889898;76;22127;-66
2021/05/23 17:03:38;;;;;;;3.62;1.52;;;;;;;19.14;36.95;99057.77;1870544;76;22129;-66
2021/05/23 17:06:13;;;;;;;4.65;1.70;;;;;;;19.09;36.93;99053.09;1870660;76;22543;-66
2021/05/23 17:08:58;;;;;;;3.75;1.52;;;;;;;19.01;36.78;99057.63;1827661;78;21565;-66
2021/05/23 17:11:33;;;;;;;3.67;1.85;;;;;;;19.00;37.09;99055.89;1870647;76;22116;-66
2021/05/23 17:14:08;;;;;;;4.28;1.60;;;;;;;18.95;37.16;99059.91;1889934;76;22163;-65
2021/05/23 17:16:43;;;;;;;4.72;1.95;;;;;;;18.91;37.44;99067.88;1870666;76;22121;-66
2021/05/23 17:19:18;;;;;;;4.37;1.72;;;;;;;18.86;37.34;99066.66;1889914;76;22135;-66
2021/05/23 17:21:52;;;;;;;6.08;2.00;;;;;;;18.82;37.64;99075.45;1870635;76;22215;-66
2021/05/23 17:24:27;;;;;;;3.98;1.60;;;;;;;18.78;38.39;99078.59;1870597;76;22137;-66
2021/05/23 17:27:02;;;;;;;10.65;1.67;;;;;;;18.71;38.27;99076.95;1889875;76;22555;-65
2021/05/23 17:29:38;;;;;;;6.30;1.70;;;;;;;18.67;38.25;99084.42;1854878;76;27996;-65
2021/05/23 17:32:24;;;;;;;5.00;1.75;;;;;;;18.63;38.64;99089.31;1760257;81;21570;-66
2021/05/23 17:34:58;;;;;;;5.58;1.80;;;;;;;18.63;38.69;99086.25;1870631;76;22149;-66
2021/05/23 17:37:34;;;;;;;4.67;1.32;;;;;;;18.58;38.95;99082.02;1870646;76;22104;-65
2021/05/23 17:40:22;;;;;;;4.37;1.40;;;;;;;18.49;39.01;99090.02;1760449;81;21153;-66
2021/05/23 17:42:57;;;;;;;4.92;1.67;;;;;;;18.48;39.03;99088.31;1870716;76;22144;-66
2021/05/23 17:45:33;;;;;;;5.12;2.10;;;;;;;18.43;39.15;99090.55;1854631;76;27898;-66
2021/05/23 17:48:20;;;;;;;4.75;2.33;;;;;;;18.41;39.22;99096.25;1827584;77;21138;-64
2021/05/23 17:50:56;;;;;;;5.08;1.90;;;;;;;18.43;39.34;99098.39;1870693;76;22152;-66
2021/05/23 17:53:32;;;;;;;4.47;2.05;;;;;;;18.37;39.26;99092.44;1889884;76;22585;-65
2021/05/23 17:56:07;;;;;;;6.17;2.83;;;;;;;18.33;39.82;99095.53;1870633;76;22145;-65
2021/05/23 17:58:42;;;;;;;7.47;2.90;;;;;;;18.27;39.97;99089.13;1889887;76;22223;-66
2021/05/23 18:01:28;;;;;;;6.15;3.30;;;;;;;18.18;39.99;99097.12;1791613;80;21684;-66
2021/05/23 18:04:03;;;;;;;9.48;4.50;;;;;;;18.20;41.09;99097.96;1870670;76;22140;-66
2021/05/23 18:06:38;;;;;;;7.58;3.83;;;;;;;18.17;40.84;99095.41;1850924;77;22595;-66
2021/05/23 18:09:12;;;;;;;6.67;2.85;;;;;;;18.16;42.05;99094.97;1870690;76;22204;-65
2021/05/23 18:11:47;;;;;;;6.45;3.37;;;;;;;18.19;42.28;99097.11;1870666;76;22117;-66
2021/05/23 18:14:22;;;;;;;6.37;3.60;;;;;;;18.22;42.33;99098.34;1890044;76;22120;-65
2021/05/23 18:16:57;;;;;;;8.70;2.72;;;;;;;18.28;42.48;99094.76;1889907;76;22141;-66
2021/05/23 18:19:32;;;;;;;7.42;3.50;;;;;;;18.31;42.44;99094.70;1854584;76;27941;-66
2021/05/23 18:22:07;;;;;;;5.80;3.17;;;;;;;18.39;42.09;99094.13;1870626;76;22137;-65
2021/05/23 18:24:42;;;;;;;6.65;3.37;;;;;;;18.40;42.56;99092.38;1889937;76;22108;-66
2021/05/23 18:27:16;;;;;;;8.13;3.50;;;;;;;18.43;42.74;99092.31;1870671;76;22116;-65
2021/05/23 18:29:51;;;;;;;6.25;3.37;;;;;;;18.49;42.59;99081.73;1870681;76;22121;-66
2021/05/23 18:32:26;;;;;;;7.08;3.80;;;;;;;18.53;42.47;99076.02;1854577;76;27924;-67
2021/05/23 18:35:01;;;;;;;9.28;3.98;;;;;;;18.56;42.59;99078.56;1890025;76;22112;-65
2021/05/23 18:37:43;;;;;;;8.43;3.87;;;;;;;18.55;42.27;99071.17;1889906;76;22116;-66
2021/05/23 18:40:18;;;;;;;7.80;3.62;;;;;;;18.55;42.51;99071.63;1870764;76;22129;-66
2021/05/23 18:43:07;;;;;;;7.30;3.50;;;;;;;18.49;42.48;99076.95;1827501;78;21146;-66
2021/05/23 18:45:43;;;;;;;6.67;3.65;;;;;;;18.50;42.45;99077.39;1889929;76;22132;-66
2021/05/23 18:48:19;;;;;;;5.67;3.35;;;;;;;18.46;42.60;99080.48;1870647;76;22137;-66
2021/05/23 18:51:00;;;;;;;9.93;3.85;;;;;;;18.44;42.62;99080.53;1869788;76;22140;-66
2021/05/23 18:53:35;;;;;;;9.55;3.50;;;;;;;18.40;42.08;99085.84;1870692;76;22133;-66
2021/05/23 18:56:20;;;;;;;8.93;3.30;;;;;;;18.25;41.89;99088.29;1760471;80;21615;-66
2021/05/23 18:58:55;;;;;;;7.17;3.17;;;;;;;18.17;42.01;99084.96;1870710;76;22140;-66
2021/05/23 19:01:30;;;;;;;7.67;2.98;;;;;;;18.06;41.94;99080.35;1870615;76;22564;-66
2021/05/23 19:04:05;;;;;;;5.75;2.70;;;;;;;17.97;41.90;99080.94;1870669;76;22567;-66
2021/05/23 19:06:40;;;;;;;6.65;3.05;;;;;;;17.89;42.05;99075.44;1889931;76;22112;-65
2021/05/23 19:09:16;;;;;;;9.00;2.98;;;;;;;17.82;42.26;99084.26;1889957;76;22559;-66
2021/05/23 19:11:52;;;;;;;7.60;3.95;;;;;;;17.76;42.41;99087.35;1870502;76;22157;-66
2021/05/23 19:14:46;;;;;;;9.00;2.92;;;;;;;17.70;42.50;99087.88;1869002;75;22202;-65
2021/05/23 19:17:27;;;;;;;6.87;2.87;;;;;;;17.65;42.69;99088.40;1889976;76;22112;-66
2021/05/23 19:20:03;;;;;;;5.92;2.95;;;;;;;17.58;43.09;99080.67;1870562;76;22176;-65
2021/05/23 19:22:39;;;;;;;7.25;3.40;;;;;;;17.53;43.09;99077.73;1870671;76;22529;-65
2021/05/23 19:25:27;;;;;;;7.40;3.52;;;;;;;17.43;44.18;99082.22;1827670;78;21703;-65
2021/05/23 19:28:03;;;;;;;9.08;3.70;;;;;;;17.46;44.58;99082.61;1870635;76;22144;-66
2021/05/23 19:30:37;;;;;;;6.50;3.15;;;;;;;17.45;44.73;99084.33;1889931;76;22115;-66
2021/05/23 19:33:13;;;;;;;8.23;3.58;;;;;;;17.43;44.89;99085.24;1870564;76;22129;-66
2021/05/23 19:38:30;;;;;;;8.05;3.40;;;;;;;17.32;44.77;99072.36;1889941;76;22144;-65
2021/05/23 19:41:16;;;;;;;6.78;3.52;;;;;;;17.20;44.77;99074.73;1791754;80;21142;-66
2021/05/23 19:43:50;;;;;;;7.28;2.10;;;;;;;17.19;44.99;99068.22;1870685;76;22109;-65
2021/05/23 19:46:32;;;;;;;3.90;1.70;;;;;;;17.16;44.88;99072.18;1870672;76;22539;-66
2021/05/23 19:49:16;;;;;;;6.17;2.35;;;;;;;17.08;44.97;99074.45;1827885;78;21103;-66
2021/05/23 19:51:51;;;;;;;5.17;2.62;;;;;;;17.11;44.84;99067.02;1870665;76;22141;-66
2021/05/23 19:54:26;;;;;;;9.30;2.75;;;;;;;17.10;45.04;99067.92;1870625;76;22116;-66
2021/05/23 19:57:01;;;;;;;5.08;2.40;;;;;;;17.07;45.02;99067.52;1854805;76;27914;-67
2021/05/23 19:59:46;;;;;;;4.65;2.60;;;;;;;17.03;45.08;99064.52;1827526;78;21126;-65
2021/05/23 20:02:22;;;;;;;5.05;2.47;;;;;;;17.02;45.15;99062.81;1870661;76;22524;-65
2021/05/23 20:04:59;;;;;;;5.75;2.37;;;;;;;16.94;45.30;99062.02;1854770;76;27915;-65
2021/05/23 20:07:34;;;;;;;5.12;2.35;;;;;;;16.93;45.34;99059.01;1870572;76;22153;-65
2021/05/23 20:10:14;;;;;;;9.05;2.70;;;;;;;16.86;45.54;99060.81;1889925;76;22140;-65
2021/05/23 20:12:48;;;;;;;6.67;2.22;;;;;;;16.79;45.90;99055.70;1870664;76;22148;-65
2021/05/23 20:15:24;;;;;;;5.45;2.25;;;;;;;16.71;45.95;99057.95;1889969;76;22550;-66
2021/05/23 20:18:01;;;;;;;8.30;2.80;;;;;;;16.67;46.02;99045.84;1870667;76;22148;-66
2021/05/23 20:20:37;;;;;;;3.72;1.55;;;;;;;16.64;46.18;99048.48;1889992;76;22152;-65
2021/05/23 20:23:14;;;;;;;5.42;2.20;;;;;;;16.61;46.08;99046.34;1873893;76;27977;-65
2021/05/23 20:25:50;;;;;;;6.65;2.80;;;;;;;16.63;46.14;99040.67;1870239;76;22149;-66
2021/05/23 20:28:25;;;;;;;5.80;2.42;;;;;;;16.60;46.18;99044.19;1870590;76;22210;-66
2021/05/23 20:31:00;;;;;;;4.83;2.47;;;;;;;16.57;46.30;99037.71;1870671;76;22113;-65
2021/05/23 20:33:34;;;;;;;4.47;2.02;;;;;;;16.56;46.35;99041.18;1870787;76;22152;-66
2021/05/23 20:36:09;;;;;;;3.80;1.92;;;;;;;16.54;46.35;99035.16;1860961;76;22169;-65
2021/05/23 20:38:43;;;;;;;8.05;2.58;;;;;;;16.54;46.41;99039.06;1855371;76;22543;-65
2021/05/23 20:41:29;;;;;;;5.42;2.58;;;;;;;16.50;46.52;99036.05;1738992;81;21189;-65
2021/05/23 20:44:05;;;;;;;4.85;2.40;;;;;;;16.56;46.55;99029.91;1855586;76;22148;-66
2021/05/23 20:46:40;;;;;;;4.80;2.20;;;;;;;16.58;46.47;99026.84;1853243;76;22169;-66
2021/05/23 20:49:16;;;;;;;7.62;2.60;;;;;;;16.59;46.42;99022.05;1853255;76;22164;-65
2021/05/23 20:51:50;;;;;;;5.65;2.62;;;;;;;16.59;46.56;99018.13;1853571;76;22246;-65
2021/05/23 20:54:25;;;;;;;3.67;1.80;;;;;;;16.59;46.46;99018.13;1855642;76;22232;-64
2021/05/23 20:57:01;;;;;;;6.90;2.70;;;;;;;16.59;45.83;99019.02;1854580;76;27990;-64
2021/05/23 20:59:47;;;;;;;7.53;2.85;;;;;;;16.59;46.30;99009.91;1827803;78;21123;-65
2021/05/23 21:02:21;;;;;;;9.28;3.58;;;;;;;16.61;46.42;99018.98;1870616;76;22120;-64
2021/05/23 21:04:56;;;;;;;20.40;14.93;;;;;;;16.65;47.15;99031.96;1870510;76;22559;-64
2021/05/23 21:07:31;;;;;;;13.03;7.25;;;;;;;16.69;46.81;99023.23;1870605;76;22125;-63
2021/05/23 21:10:07;;;;;;;9.20;5.42;;;;;;;16.75;46.96;99020.13;1889991;76;22156;-65
2021/05/23 21:12:42;;;;;;;10.20;4.90;;;;;;;16.77;46.74;99026.19;1870764;76;20213;-65
2021/05/23 21:15:28;;;;;;;13.03;5.12;;;;;;;16.77;46.57;99031.40;1827619;78;21537;-65
2021/05/23 21:18:03;;;;;;;8.38;4.60;;;;;;;16.86;46.56;99028.69;1870582;76;22832;-64
2021/05/23 21:20:37;;;;;;;7.75;3.55;;;;;;;16.90;46.33;99031.69;1853109;76;22172;-64
2021/05/23 21:23:18;;;;;;;10.13;4.50;;;;;;;16.95;46.06;99027.27;1854429;76;22170;-65
2021/05/23 21:25:52;;;;;;;12.50;3.10;;;;;;;17.01;45.54;99027.62;1865941;76;22128;-65
2021/05/23 21:28:29;;;;;;;9.83;4.20;;;;;;;17.05;45.22;99024.95;1848605;76;22156;-65
2021/05/23 21:31:04;;;;;;;10.13;4.08;;;;;;;17.09;45.35;99025.31;1851179;76;22290;-65
2021/05/23 21:33:40;;;;;;;9.73;4.42;;;;;;;17.13;44.91;99030.05;1865521;76;22227;-65
2021/05/23 21:36:15;;;;;;;7.45;3.62;;;;;;;17.18;45.08;99026.08;1870682;76;20384;-65
2021/05/23 21:38:49;;;;;;;8.65;3.60;;;;;;;17.20;44.88;99026.89;1850467;76;22183;-66
2021/05/23 21:41:24;;;;;;;7.12;3.65;;;;;;;17.22;44.70;99030.34;1889881;76;22148;-65
2021/05/23 21:43:59;;;;;;;9.40;3.87;;;;;;;17.24;44.43;99029.44;1877863;76;22162;-66
2021/05/23 21:46:34;;;;;;;10.48;4.00;;;;;;;17.25;44.60;99022.05;1866517;76;22166;-66
2021/05/23 21:49:08;;;;;;;12.07;3.70;;;;;;;17.27;44.69;99025.92;1854541;76;22601;-65
2021/05/23 21:51:43;;;;;;;9.90;3.92;;;;;;;17.27;44.67;99025.92;1849594;76;22175;-62
2021/05/23 21:54:29;;;;;;;7.75;4.17;;;;;;;17.24;44.32;99020.77;1811386;78;21229;-63
2021/05/23 21:57:05;;;;;;;9.63;3.72;;;;;;;17.31;44.48;99016.73;1850516;76;22171;-63
2021/05/23 21:59:46;;;;;;;6.78;3.80;;;;;;;17.32;44.37;99013.67;1868738;76;22647;-63
2021/05/23 22:02:21;;;;;;;7.15;3.40;;;;;;;17.30;44.03;99017.63;1842956;76;22159;-64
2021/05/23 22:04:55;;;;;;;9.98;4.25;;;;;;;17.32;43.65;99013.67;1850727;76;22131;-64
2021/05/23 22:07:30;;;;;;;8.88;4.50;;;;;;;17.31;44.07;99018.48;1844407;76;22210;-66
2021/05/23 22:10:24;;;;;;;9.15;4.12;;;;;;;17.27;44.83;99008.52;1863261;75;22683;-66
2021/05/23 22:12:59;;;;;;;11.35;5.22;;;;;;;17.22;44.80;99001.66;1851286;76;22191;-65
2021/05/23 22:15:46;;;;;;;8.35;4.40;;;;;;;17.12;44.82;98997.91;1825854;78;21347;-63
2021/05/23 22:18:22;;;;;;;10.68;3.98;;;;;;;17.14;44.71;98996.56;1869799;76;22599;-67
2021/05/23 22:20:57;;;;;;;10.38;4.35;;;;;;;17.10;44.54;98987.94;1870651;76;20363;-66
2021/05/23 22:23:34;;;;;;;8.55;4.30;;;;;;;17.08;44.92;98988.39;1870582;76;22140;-65
2021/05/23 22:26:09;;;;;;;9.70;5.17;;;;;;;17.06;45.11;98979.73;1854741;76;27904;-68
2021/05/23 22:28:55;;;;;;;13.18;4.80;;;;;;;17.03;45.17;98986.30;1827487;77;21141;-66
2021/05/23 22:31:30;;;;;;;7.60;4.62;;;;;;;17.06;45.45;98981.48;1870646;76;22144;-67
2021/05/23 22:34:05;;;;;;;13.35;4.40;;;;;;;17.04;45.43;98990.61;1889933;76;22168;-62
2021/05/23 22:36:39;;;;;;;8.95;3.80;;;;;;;17.02;45.42;98976.77;1870648;76;22140;-64
2021/05/23 22:39:14;;;;;;;6.70;3.58;;;;;;;17.01;44.82;98976.33;1870664;76;22117;-65
2021/05/23 22:41:49;;;;;;;7.08;3.40;;;;;;;17.02;44.62;98980.67;1890068;76;22129;-66
2021/05/23 22:44:25;;;;;;;10.10;2.70;;;;;;;17.01;44.42;98976.33;1889913;76;22140;-66
2021/05/23 22:46:59;;;;;;;9.60;2.80;;;;;;;17.02;44.19;98961.12;1870595;76;22540;-66
2021/05/23 22:49:34;;;;;;;9.25;3.50;;;;;;;17.03;44.16;98952.41;1870647;76;22133;-67
2021/05/23 22:52:09;;;;;;;6.40;3.27;;;;;;;17.04;44.25;98947.59;1870624;76;22583;-65
2021/05/23 22:54:44;;;;;;;7.22;3.42;;;;;;;17.05;44.45;98961.07;1870643;76;22108;-63
2021/05/23 22:57:29;;;;;;;8.28;3.52;;;;;;;16.99;44.81;98964.20;1827680;78;21280;-65
2021/05/23 23:00:15;;;;;;;7.62;3.47;;;;;;;17.01;44.94;98967.20;1870755;76;22140;-67
2021/05/23 23:02:46;;;;;;;6.22;3.08;;;;;;;17.01;44.64;98965.05;1889890;76;22546;-65
2021/05/23 23:05:21;;;;;;;7.20;2.87;;;;;;;16.99;44.40;98952.47;1890107;76;22136;-65
2021/05/23 23:07:56;;;;;;;7.20;3.62;;;;;;;16.99;44.24;98956.37;1889935;76;22148;-65
2021/05/23 23:10:37;;;;;;;8.98;3.50;;;;;;;16.96;44.51;98972.93;1889875;76;22610;-67
2021/05/23 23:13:12;;;;;;;9.05;3.12;;;;;;;16.95;44.58;98960.80;1890000;76;22152;-64
2021/05/23 23:15:47;;;;;;;8.13;3.20;;;;;;;16.93;44.62;98951.68;1890036;76;22219;-62
2021/05/23 23:18:22;;;;;;;7.70;3.42;;;;;;;16.92;44.66;98959.54;1870635;76;22563;-66
2021/05/23 23:20:57;;;;;;;11.20;4.03;;;;;;;16.91;44.89;98959.10;1889959;76;22162;-63
2021/05/23 23:23:31;;;;;;;8.40;3.50;;;;;;;16.90;44.96;98950.88;1870646;76;22141;-66
2021/05/23 23:26:06;;;;;;;9.93;3.20;;;;;;;16.87;45.10;98941.80;1889940;76;22148;-66
2021/05/23 23:28:41;;;;;;;7.15;3.35;;;;;;;16.86;44.79;98947.88;1870683;76;22113;-66
2021/05/23 23:31:16;;;;;;;6.58;3.30;;;;;;;16.85;44.69;98946.17;1889897;76;22140;-67
2021/05/23 23:33:51;;;;;;;10.30;4.40;;;;;;;16.86;45.05;98951.79;1889926;76;22140;-65
2021/05/23 23:36:27;;;;;;;8.33;3.55;;;;;;;16.85;45.30;98955.30;1870677;76;22551;-63
2021/05/23 23:39:07;;;;;;;8.50;3.40;;;;;;;16.83;45.24;98957.91;1869746;76;22141;-66
2021/05/23 23:41:43;;;;;;;6.83;3.52;;;;;;;16.82;45.62;98952.73;1870569;76;22158;-65
2021/05/23 23:44:17;;;;;;;7.42;2.95;;;;;;;16.82;45.26;98953.59;1870648;76;22117;-62
2021/05/23 23:46:52;;;;;;;7.62;3.15;;;;;;;16.82;45.20;98955.34;1890018;76;22148;-66
2021/05/23 23:49:26;;;;;;;7.08;3.22;;;;;;;16.83;45.34;98947.94;1870665;76;22594;-63
2021/05/23 23:52:01;;;;;;;6.67;3.25;;;;;;;16.82;45.14;98939.27;1870698;76;22125;-66
2021/05/23 23:54:37;;;;;;;7.45;3.37;;;;;;;16.81;44.97;98933.61;1873850;76;38609;-65
2021/05/23 23:57:11;;;;;;;8.28;2.70;;;;;;;16.84;44.88;98932.70;1890038;76;22136;-67
2021/05/23 23:59:46;;;;;;;8.73;2.90;;;;;;;16.85;44.80;98943.56;1870633;76;22149;-67
